Time;durP1;ratioP1;P1;durP2;ratioP2;P2;SDS_P1;SDS_P2;PMS_P1;PMS_P2;Temp;Humidity;BMP_temperature;BMP_pressure;BME280_temperature;BME280_humidity;BME280_pressure;Samples;Min_cycle;Max_cycle;Signal;HPM_P1;HPM_P2
2022/11/02 00:01:49;;;;;;;7.03;4.93;;;14.70;98.00;;;;;;5042157;28;20021;-70
2022/11/02 00:04:15;;;;;;;9.95;5.28;;;14.70;98.00;;;;;;5042202;28;20032;-71
2022/11/02 00:06:49;;;;;;;5.78;5.20;;;14.70;98.00;;;;;;5060036;28;20016;-72
2022/11/02 00:09:24;;;;;;;4.07;3.67;;;14.70;98.00;;;;;;5059954;28;20025;-70
2022/11/02 00:11:59;;;;;;;7.20;3.47;;;14.70;98.00;;;;;;5059244;28;20041;-70
2022/11/02 00:14:25;;;;;;;6.00;4.43;;;14.70;98.00;;;;;;5059752;28;20260;-69
2022/11/02 00:17:00;;;;;;;2.65;1.92;;;14.80;98.00;;;;;;5059693;28;20028;-71
2022/11/02 00:19:35;;;;;;;3.65;3.05;;;14.70;98.00;;;;;;5059785;28;20033;-72
2022/11/02 00:25:23;;;;;;;3.58;3.10;;;14.70;98.00;;;;;;5059511;28;20044;-71
2022/11/02 00:28:31;;;;;;;7.28;2.42;;;14.70;98.00;;;;;;5059561;28;20024;-71
2022/11/02 00:31:06;;;;;;;6.63;3.78;;;14.70;98.00;;;;;;5059340;28;20025;-70
2022/11/02 00:33:32;;;;;;;4.38;3.00;;;14.70;98.00;;;;;;5059382;28;20020;-70
2022/11/02 00:36:07;;;;;;;2.53;2.33;;;14.70;98.00;;;;;;5059535;28;20025;-70
2022/11/02 00:39:22;;;;;;;8.93;4.65;;;14.70;98.00;;;;;;5059489;28;20043;-70
2022/11/02 00:41:58;;;;;;;4.90;4.05;;;14.70;98.00;;;;;;5059217;28;20028;-69
2022/11/02 00:44:24;;;;;;;;;;;14.70;98.00;;;;;;5059891;28;20070;-70
2022/11/02 00:47:05;;;;;;;4.97;4.23;;;14.60;98.00;;;;;;5059183;28;20289;-70
2022/11/02 00:49:39;;;;;;;3.25;2.88;;;14.50;98.00;;;;;;5059063;28;20024;-70
2022/11/02 00:52:14;;;;;;;2.95;1.70;;;14.40;98.00;;;;;;5058965;28;20021;-69
2022/11/02 00:54:40;;;;;;;2.67;2.33;;;14.20;98.00;;;;;;5059025;28;20029;-70
2022/11/02 00:57:52;;;;;;;4.25;3.55;;;14.10;98.00;;;;;;5058918;28;20055;-70
2022/11/02 01:00:27;;;;;;;3.90;3.20;;;13.90;98.00;;;;;;5058857;28;20013;-69
2022/11/02 01:03:02;;;;;;;11.18;2.22;;;13.80;98.00;;;;;;5058673;28;20025;-69
2022/11/02 01:05:29;;;;;;;3.43;3.13;;;13.70;98.00;;;;;;5058576;28;20025;-70
2022/11/02 01:08:10;;;;;;;1.70;1.58;;;13.70;98.00;;;;;;5057877;28;20305;-69
2022/11/02 01:10:45;;;;;;;5.80;4.07;;;13.50;98.00;;;;;;5058759;28;20031;-70
2022/11/02 01:13:35;;;;;;;3.65;1.48;;;13.30;98.00;;;;;;5058236;28;20053;-70
2022/11/02 01:16:19;;;;;;;1.48;1.38;;;13.10;98.00;;;;;;5040745;28;20033;-71
2022/11/02 01:18:55;;;;;;;2.25;1.67;;;13.00;98.00;;;;;;5058513;28;20029;-71
2022/11/02 01:21:30;;;;;;;1.15;1.05;;;12.90;98.00;;;;;;5058396;28;20089;-71
2022/11/02 01:23:56;;;;;;;4.07;2.13;;;12.90;98.00;;;;;;5058382;28;20083;-71
2022/11/02 01:26:40;;;;;;;2.35;1.98;;;12.90;98.00;;;;;;5058375;28;20009;-71
2022/11/02 01:29:14;;;;;;;2.55;1.90;;;12.90;98.00;;;;;;5058766;28;20017;-71
2022/11/02 01:31:50;;;;;;;1.23;1.05;;;12.80;98.00;;;;;;5058240;28;20024;-71
2022/11/02 01:34:16;;;;;;;2.80;2.10;;;12.70;98.00;;;;;;5058239;28;20317;-71
2022/11/02 01:37:00;;;;;;;6.28;3.08;;;12.60;98.00;;;;;;5058217;28;20025;-71
2022/11/02 01:39:35;;;;;;;3.25;2.75;;;12.50;98.00;;;;;;5058200;28;20036;-71
2022/11/02 01:45:23;;;;;;;2.22;1.83;;;12.60;98.00;;;;;;5058038;28;20107;-71
2022/11/02 01:47:58;;;;;;;2.08;1.67;;;12.60;98.00;;;;;;5058061;28;20052;-71
2022/11/02 01:50:32;;;;;;;2.15;1.92;;;12.60;98.00;;;;;;5057989;28;20405;-71
2022/11/02 01:56:24;;;;;;;3.00;2.78;;;12.50;98.00;;;;;;5057952;28;20048;-71
2022/11/02 01:59:06;;;;;;;1.83;1.70;;;12.40;98.00;;;;;;5058034;28;20028;-71
2022/11/02 02:01:41;;;;;;;4.68;1.92;;;12.30;98.00;;;;;;5039998;28;20021;-71
2022/11/02 02:04:08;;;;;;;1.50;1.33;;;12.30;98.00;;;;;;5057473;28;20409;-71
2022/11/02 02:06:43;;;;;;;7.50;2.67;;;12.30;98.00;;;;;;5057505;28;20599;-71
2022/11/02 02:09:19;;;;;;;3.72;2.72;;;12.30;98.00;;;;;;5057653;28;20056;-71
2022/11/02 02:11:55;;;;;;;2.45;1.77;;;12.40;98.00;;;;;;5057051;28;20049;-71
2022/11/02 02:14:21;;;;;;;;;;;12.40;98.00;;;;;;5057917;28;20017;-71
2022/11/02 02:17:33;;;;;;;11.57;4.38;;;12.40;98.00;;;;;;5057455;28;20285;-71
2022/11/02 02:20:58;;;;;;;4.13;2.20;;;12.40;98.00;;;;;;5057470;28;20409;-71
2022/11/02 02:27:25;;;;;;;3.50;2.60;;;12.20;98.00;;;;;;5057248;28;20115;-71
2022/11/02 02:30:47;;;;;;;3.25;2.17;;;12.20;98.00;;;;;;5057164;28;20033;-71
2022/11/02 02:37:05;;;;;;;4.60;2.97;;;12.20;98.00;;;;;;5057129;28;20052;-71
2022/11/02 02:40:03;;;;;;;5.28;4.05;;;12.20;98.00;;;;;;5057000;28;20083;-71
2022/11/02 02:43:15;;;;;;;8.48;3.45;;;12.10;98.00;;;;;;5057015;28;20025;-71
2022/11/02 02:45:51;;;;;;;2.45;2.00;;;12.10;98.00;;;;;;5056799;28;20020;-71
2022/11/02 02:48:29;;;;;;;7.07;3.28;;;12.10;98.00;;;;;;5057015;28;20403;-71
2022/11/02 02:51:11;;;;;;;3.33;2.10;;;12.10;98.00;;;;;;5056771;28;20015;-71
2022/11/02 02:53:45;;;;;;;4.18;3.55;;;12.00;98.00;;;;;;5039074;28;20441;-71
2022/11/02 02:56:24;;;;;;;12.35;2.70;;;12.00;98.00;;;;;;5039072;28;20013;-71
2022/11/02 02:59:17;;;;;;;1.83;1.40;;;11.90;98.00;;;;;;5056696;28;20112;-71
2022/11/02 03:01:55;;;;;;;3.28;2.05;;;11.90;98.00;;;;;;5056624;28;20405;-71
2022/11/02 03:04:21;;;;;;;4.25;3.47;;;11.90;98.00;;;;;;5056541;28;20048;-71
2022/11/02 03:07:01;;;;;;;3.30;2.95;;;11.90;98.00;;;;;;5056596;28;20420;-71
2022/11/02 03:10:52;;;;;;;0.95;0.85;;;11.90;98.00;;;;;;5056611;28;20021;-71
2022/11/02 03:17:44;;;;;;;2.35;1.17;;;11.80;98.00;;;;;;4945640;28;20101;-71
2022/11/02 03:20:26;;;;;;;2.72;1.63;;;11.80;98.00;;;;;;4918552;29;20039;-71
2022/11/02 03:26:55;;;;;;;1.40;0.98;;;11.90;98.00;;;;;;4915418;29;20047;-71
2022/11/02 03:30:10;;;;;;;2.97;2.60;;;11.90;98.00;;;;;;4917812;29;20115;-71
2022/11/02 03:33:01;;;;;;;8.20;3.58;;;11.90;98.00;;;;;;4913723;29;20310;-71
2022/11/02 03:35:48;;;;;;;3.47;2.58;;;12.00;98.00;;;;;;4918233;29;20032;-71
2022/11/02 03:38:31;;;;;;;2.30;2.08;;;12.10;98.00;;;;;;4918207;29;20069;-71
2022/11/02 03:41:07;;;;;;;2.80;1.88;;;12.10;98.00;;;;;;4918282;29;20088;-71
2022/11/02 03:43:43;;;;;;;4.45;2.45;;;12.20;98.00;;;;;;4937761;28;20041;-71
2022/11/02 03:46:20;;;;;;;2.47;2.10;;;12.20;98.00;;;;;;4975514;28;20041;-71
2022/11/02 03:48:55;;;;;;;5.47;2.72;;;12.20;98.00;;;;;;4975620;28;20035;-71
2022/11/02 03:51:42;;;;;;;3.08;2.78;;;12.20;98.00;;;;;;5024708;28;20120;-71
2022/11/02 03:57:50;;;;;;;4.57;2.50;;;12.20;98.00;;;;;;5036601;28;20310;-71
2022/11/02 04:00:28;;;;;;;10.55;3.70;;;12.10;98.00;;;;;;5036190;28;20025;-71
2022/11/02 04:06:16;;;;;;;4.30;1.58;;;12.00;98.00;;;;;;5036126;28;20037;-71
2022/11/02 04:08:58;;;;;;;3.08;1.60;;;12.00;98.00;;;;;;5018446;28;20034;-71
2022/11/02 04:20:07;;;;;;;2.78;1.95;;;11.90;98.00;;;;;;5036003;28;20036;-71
2022/11/02 04:25:26;;;;;;;5.65;3.08;;;11.80;98.00;;;;;;5035836;28;20136;-71
2022/11/02 04:28:07;;;;;;;4.85;2.20;;;11.90;98.00;;;;;;5035910;28;20049;-71
2022/11/02 04:30:53;;;;;;;9.55;2.30;;;12.00;98.00;;;;;;5035654;28;20017;-71
2022/11/02 04:36:41;;;;;;;8.07;2.15;;;12.00;98.00;;;;;;5035978;28;20032;-71
2022/11/02 04:39:15;;;;;;;2.78;2.00;;;12.00;98.00;;;;;;5018125;28;20398;-71
2022/11/02 04:41:50;;;;;;;2.03;1.63;;;12.00;98.00;;;;;;5038280;28;20022;-71
2022/11/02 04:45:02;;;;;;;7.53;4.07;;;12.00;98.00;;;;;;5039305;28;20021;-71
2022/11/02 04:47:40;;;;;;;3.03;2.50;;;12.00;98.00;;;;;;5039203;28;20017;-71
2022/11/02 04:50:15;;;;;;;2.72;2.38;;;12.10;98.00;;;;;;5039261;28;20398;-71
2022/11/02 04:52:58;;;;;;;3.47;2.47;;;12.10;98.00;;;;;;5039060;28;20025;-71
2022/11/02 04:55:24;;;;;;;2.38;1.55;;;12.10;98.00;;;;;;5021485;28;20018;-71
2022/11/02 04:57:59;;;;;;;5.07;2.63;;;12.10;98.00;;;;;;5039033;28;20029;-71
2022/11/02 05:00:34;;;;;;;4.38;2.70;;;12.10;98.00;;;;;;5039127;28;20397;-71
2022/11/02 05:03:09;;;;;;;9.48;3.95;;;12.00;98.00;;;;;;5021511;28;20018;-71
2022/11/02 05:05:35;;;;;;;3.83;3.10;;;12.00;98.00;;;;;;5038877;28;20075;-71
2022/11/02 05:08:19;;;;;;;2.75;1.85;;;12.00;98.00;;;;;;5038995;28;20433;-71
2022/11/02 05:10:55;;;;;;;2.78;1.80;;;12.00;98.00;;;;;;5038800;28;20021;-71
2022/11/02 05:16:57;;;;;;;4.63;2.05;;;11.90;98.00;;;;;;5058879;28;20027;-71
2022/11/02 05:19:31;;;;;;;4.93;3.10;;;11.80;98.00;;;;;;5058570;28;20081;-71
2022/11/02 05:25:19;;;;;;;1.88;1.08;;;11.80;98.00;;;;;;5058773;28;20089;-71
2022/11/02 05:27:56;;;;;;;11.10;2.67;;;11.80;98.00;;;;;;5058374;28;20457;-71
2022/11/02 05:30:31;;;;;;;3.28;2.17;;;11.90;98.00;;;;;;5058253;28;20017;-71
2022/11/02 05:33:06;;;;;;;3.40;3.10;;;11.90;98.00;;;;;;5058320;28;20021;-71
2022/11/02 05:35:31;;;;;;;4.70;2.70;;;11.90;98.00;;;;;;5058182;28;20017;-71
2022/11/02 05:38:06;;;;;;;7.55;4.38;;;11.90;98.00;;;;;;5058222;28;20033;-71
2022/11/02 05:40:41;;;;;;;12.65;5.38;;;11.90;98.00;;;;;;5058388;28;20036;-71
2022/11/02 05:43:16;;;;;;;2.17;1.70;;;11.90;98.00;;;;;;5058209;28;20033;-71
2022/11/02 05:45:41;;;;;;;5.75;2.47;;;11.90;98.00;;;;;;5058121;28;20024;-71
2022/11/02 05:48:24;;;;;;;5.40;4.90;;;11.90;98.00;;;;;;5040676;28;20336;-71
2022/11/02 05:51:01;;;;;;;7.35;3.42;;;12.10;98.00;;;;;;5058065;28;20490;-71
2022/11/02 05:56:48;;;;;;;9.13;3.13;;;12.20;98.00;;;;;;5058528;28;20342;-71
2022/11/02 05:59:23;;;;;;;5.45;2.88;;;12.00;98.00;;;;;;5057844;28;20055;-71
2022/11/02 06:02:09;;;;;;;7.37;2.37;;;11.90;98.00;;;;;;5057801;28;20021;-71
2022/11/02 06:04:34;;;;;;;2.47;1.58;;;11.90;98.00;;;;;;5057691;28;20401;-71
2022/11/02 06:07:18;;;;;;;1.02;0.93;;;11.90;98.00;;;;;;5057779;28;20029;-71
2022/11/02 06:09:54;;;;;;;7.13;3.58;;;12.00;98.00;;;;;;5057488;28;20440;-71
2022/11/02 06:19:43;;;;;;;2.53;2.00;;;12.20;98.00;;;;;;5057523;28;20520;-71
2022/11/02 06:22:24;;;;;;;5.78;3.30;;;12.20;98.00;;;;;;5057476;28;20120;-71
2022/11/02 06:24:50;;;;;;;4.00;2.03;;;12.10;98.00;;;;;;5057179;28;20339;-71
2022/11/02 06:27:34;;;;;;;10.20;2.72;;;12.10;98.00;;;;;;5057396;28;20025;-71
2022/11/02 06:30:09;;;;;;;5.50;2.70;;;12.00;98.00;;;;;;5057157;28;20025;-71
2022/11/02 06:35:57;;;;;;;6.63;3.58;;;12.00;98.00;;;;;;5057528;28;20028;-71
2022/11/02 06:38:32;;;;;;;9.00;2.55;;;12.10;98.00;;;;;;5057035;28;20025;-71
2022/11/02 06:41:17;;;;;;;5.05;2.83;;;12.20;98.00;;;;;;5057029;28;20080;-71
2022/11/02 06:47:20;;;;;;;3.80;2.88;;;12.40;98.00;;;;;;5057269;28;20128;-71
2022/11/02 06:49:55;;;;;;;3.08;2.40;;;12.50;98.00;;;;;;5056921;28;20297;-71
2022/11/02 06:55:43;;;;;;;7.38;4.13;;;12.70;98.00;;;;;;5057284;28;20317;-71
2022/11/02 06:58:18;;;;;;;10.70;2.22;;;12.90;98.00;;;;;;5038995;28;20028;-71
2022/11/02 07:01:08;;;;;;;4.72;4.15;;;13.00;98.00;;;;;;5056808;28;20044;-71
2022/11/02 07:03:43;;;;;;;8.02;3.65;;;13.20;98.00;;;;;;5056422;28;20031;-69
2022/11/02 07:06:18;;;;;;;8.60;6.10;;;13.30;98.00;;;;;;5056137;28;20025;-70
2022/11/02 07:08:53;;;;;;;3.63;3.22;;;13.40;98.00;;;;;;5038997;28;20071;-69
2022/11/02 07:11:28;;;;;;;;;;;13.50;98.00;;;;;;5039482;28;20045;-70
2022/11/02 07:13:54;;;;;;;5.63;4.03;;;13.60;98.00;;;;;;5056482;28;19955;-69
2022/11/02 07:19:56;;;;;;;4.63;4.15;;;13.70;98.00;;;;;;5056708;28;20063;-69
2022/11/02 07:25:43;;;;;;;4.82;3.10;;;13.90;98.00;;;;;;5056541;28;20495;-70
2022/11/02 07:28:18;;;;;;;5.68;4.55;;;14.10;98.00;;;;;;5056346;28;20025;-69
2022/11/02 07:30:54;;;;;;;5.35;2.83;;;14.20;98.00;;;;;;5056373;28;20052;-69
2022/11/02 07:36:23;;;;;;;2.75;2.55;;;14.20;98.00;;;;;;5056593;28;20392;-69
2022/11/02 07:39:00;;;;;;;4.50;3.10;;;14.30;98.00;;;;;;5056376;28;20048;-69
2022/11/02 07:41:35;;;;;;;5.38;3.83;;;14.30;98.00;;;;;;5056282;28;20286;-69
2022/11/02 07:44:01;;;;;;;6.60;4.22;;;14.30;98.00;;;;;;5056550;28;20107;-69
2022/11/02 07:46:45;;;;;;;3.80;3.25;;;14.30;98.00;;;;;;5056297;28;20107;-70
2022/11/02 07:49:20;;;;;;;4.75;2.95;;;14.40;98.00;;;;;;5056082;28;20017;-70
2022/11/02 07:51:56;;;;;;;8.27;4.27;;;14.50;98.00;;;;;;5056158;28;20013;-69
2022/11/02 07:54:21;;;;;;;;;;;14.50;98.00;;;;;;5056353;28;20045;-69
2022/11/02 07:57:05;;;;;;;11.10;5.67;;;14.60;98.00;;;;;;5038623;28;20208;-70
2022/11/02 07:59:40;;;;;;;6.47;4.90;;;14.70;98.00;;;;;;5056162;28;20128;-70
2022/11/02 08:05:30;;;;;;;10.60;4.55;;;14.80;98.00;;;;;;5056124;28;20032;-70
2022/11/02 08:08:19;;;;;;;5.97;4.10;;;14.80;98.00;;;;;;5056327;28;20319;-69
2022/11/02 08:10:54;;;;;;;2.20;1.88;;;14.90;98.00;;;;;;5038320;28;20017;-70
2022/11/02 08:16:52;;;;;;;4.15;3.75;;;15.00;98.00;;;;;;5057409;28;20047;-71
2022/11/02 08:19:29;;;;;;;10.57;4.25;;;15.10;98.00;;;;;;5059561;28;20156;-71
2022/11/02 08:22:04;;;;;;;4.55;4.05;;;15.10;98.00;;;;;;5059577;28;20405;-71
2022/11/02 08:24:30;;;;;;;5.13;3.70;;;15.10;98.00;;;;;;5059619;28;20040;-71
2022/11/02 08:27:14;;;;;;;2.88;2.67;;;15.10;98.00;;;;;;5059858;28;20028;-71
2022/11/02 08:29:49;;;;;;;4.72;3.95;;;15.10;98.00;;;;;;5059608;28;20437;-71
2022/11/02 08:32:24;;;;;;;6.50;3.22;;;15.20;98.00;;;;;;5059404;28;20309;-71
2022/11/02 08:34:49;;;;;;;3.88;2.53;;;15.30;98.00;;;;;;5059541;28;20028;-71
2022/11/02 08:37:33;;;;;;;5.18;2.97;;;15.40;98.00;;;;;;5059471;28;20033;-71
2022/11/02 08:40:09;;;;;;;2.60;2.40;;;15.50;98.00;;;;;;5059355;28;20107;-71
2022/11/02 08:45:58;;;;;;;3.08;2.63;;;15.50;98.00;;;;;;5059421;28;20032;-71
2022/11/02 08:48:33;;;;;;;3.70;3.30;;;15.60;98.00;;;;;;5059211;28;20032;-71
2022/11/02 08:51:08;;;;;;;5.35;4.70;;;15.80;98.00;;;;;;5059158;28;20432;-71
2022/11/02 08:57:05;;;;;;;4.18;3.28;;;16.30;98.00;;;;;;5059344;28;20419;-71
2022/11/02 08:59:40;;;;;;;4.83;3.13;;;16.80;98.00;;;;;;5059104;28;20044;-70
2022/11/02 09:05:29;;;;;;;6.10;3.13;;;17.70;96.20;;;;;;5059010;28;20036;-69
2022/11/02 09:08:13;;;;;;;5.22;3.22;;;18.30;92.10;;;;;;5041222;28;20020;-69
2022/11/02 09:10:50;;;;;;;3.95;2.65;;;18.60;91.30;;;;;;5058849;28;20313;-70
2022/11/02 09:13:26;;;;;;;2.33;1.88;;;19.00;90.90;;;;;;5058683;28;20383;-69
2022/11/02 09:16:51;;;;;;;3.95;2.40;;;19.10;90.70;;;;;;5058089;28;20321;-69
2022/11/02 09:20:15;;;;;;;8.20;3.58;;;19.50;89.50;;;;;;5058651;28;20036;-69
2022/11/02 09:23:30;;;;;;;3.03;2.72;;;20.40;87.80;;;;;;5058522;28;20028;-70
2022/11/02 09:27:02;;;;;;;6.18;3.60;;;20.70;86.80;;;;;;5058607;28;20416;-70
2022/11/02 09:29:53;;;;;;;3.00;2.20;;;21.20;87.50;;;;;;5058281;28;20017;-70
2022/11/02 09:35:45;;;;;;;3.70;2.92;;;21.20;83.90;;;;;;5058765;28;20044;-70
2022/11/02 09:38:20;;;;;;;2.85;1.65;;;21.10;84.80;;;;;;5058274;28;20017;-70
2022/11/02 09:41:29;;;;;;;5.20;3.83;;;21.10;83.70;;;;;;5058243;28;20044;-70
2022/11/02 09:47:28;;;;;;;3.47;2.63;;;21.40;82.50;;;;;;5058382;28;20071;-70
2022/11/02 09:50:03;;;;;;;5.03;3.03;;;21.60;80.70;;;;;;5058007;28;20025;-70
2022/11/02 09:52:38;;;;;;;;;;;21.70;81.30;;;;;;5058309;28;20013;-70
2022/11/02 09:55:35;;;;;;;4.13;2.60;;;21.60;81.60;;;;;;5058051;28;19931;-69
2022/11/02 10:05:33;;;;;;;4.43;2.05;;;20.80;82.60;;;;;;5057823;28;20363;-71
2022/11/02 10:08:29;;;;;;;6.28;2.47;;;20.90;82.20;;;;;;5057682;28;20017;-70
2022/11/02 10:11:07;;;;;;;;;;;20.90;82.60;;;;;;5058050;28;20084;-70
2022/11/02 10:13:59;;;;;;;5.43;1.83;;;21.10;82.90;;;;;;5039884;28;19912;-70
2022/11/02 10:16:38;;;;;;;2.78;1.67;;;21.00;83.10;;;;;;5057015;28;20048;-70
2022/11/02 10:19:18;;;;;;;6.30;2.33;;;20.90;83.80;;;;;;5057658;28;20032;-71
2022/11/02 10:21:57;;;;;;;4.03;2.28;;;20.80;83.60;;;;;;5057574;28;20017;-69
2022/11/02 10:24:28;;;;;;;2.78;1.65;;;20.60;82.20;;;;;;5057246;28;20427;-70
2022/11/02 10:27:25;;;;;;;3.03;2.72;;;20.60;82.90;;;;;;5039738;28;20033;-71
2022/11/02 10:30:22;;;;;;;2.30;1.63;;;20.70;83.00;;;;;;5057335;28;20040;-71
2022/11/02 10:37:16;;;;;;;2.47;1.25;;;20.70;81.10;;;;;;5057522;28;20475;-71
2022/11/02 10:40:00;;;;;;;3.67;1.95;;;20.80;82.70;;;;;;5015568;28;20034;-71
2022/11/02 10:43:03;;;;;;;2.88;2.30;;;20.90;82.20;;;;;;5015535;28;20058;-71
2022/11/02 10:45:36;;;;;;;3.00;2.03;;;21.00;82.60;;;;;;5056837;28;20032;-71
2022/11/02 10:48:55;;;;;;;4.03;2.38;;;21.10;81.90;;;;;;5056933;28;20075;-71
2022/11/02 10:51:30;;;;;;;5.53;3.40;;;21.20;81.20;;;;;;5015466;28;20292;-71
2022/11/02 10:57:31;;;;;;;3.92;1.92;;;21.50;80.60;;;;;;5015237;28;20041;-71
2022/11/02 11:00:32;;;;;;;5.65;3.22;;;21.50;83.80;;;;;;5015192;28;20022;-71
2022/11/02 11:03:13;;;;;;;3.10;1.83;;;21.40;84.10;;;;;;5015221;28;20101;-71
2022/11/02 11:06:02;;;;;;;2.38;1.55;;;21.20;85.40;;;;;;5015281;28;20050;-71
2022/11/02 11:08:50;;;;;;;4.38;2.88;;;21.10;84.50;;;;;;5015236;28;20038;-71
2022/11/02 11:11:40;;;;;;;4.55;3.15;;;21.00;85.60;;;;;;5015114;28;20105;-71
2022/11/02 11:17:43;;;;;;;4.88;2.05;;;21.00;84.50;;;;;;5015054;28;20123;-69
2022/11/02 11:20:43;;;;;;;2.10;1.75;;;21.10;84.00;;;;;;5014971;28;20418;-70
2022/11/02 11:23:26;;;;;;;2.58;2.15;;;21.00;85.30;;;;;;5014847;28;20080;-69
2022/11/02 11:26:45;;;;;;;3.30;2.35;;;20.90;85.90;;;;;;5014937;28;20044;-69
2022/11/02 11:29:31;;;;;;;4.15;2.45;;;20.60;85.60;;;;;;5056244;28;20020;-69
2022/11/02 11:32:46;;;;;;;5.40;3.85;;;20.50;85.80;;;;;;5056343;28;20029;-69
2022/11/02 11:35:17;;;;;;;6.35;2.03;;;20.10;87.50;;;;;;5051255;28;20090;-70
2022/11/02 11:38:01;;;;;;;6.30;2.60;;;19.60;88.00;;;;;;5056436;28;20101;-70
2022/11/02 11:40:43;;;;;;;2.10;1.85;;;19.00;89.80;;;;;;5056266;28;20029;-70
2022/11/02 11:46:59;;;;;;;3.63;2.08;;;18.30;91.70;;;;;;5056364;28;20175;-69
2022/11/02 11:49:48;;;;;;;7.20;3.25;;;17.90;94.20;;;;;;5056241;28;20124;-69
2022/11/02 11:56:03;;;;;;;5.30;3.72;;;17.60;96.70;;;;;;5060350;28;20324;-69
2022/11/02 11:58:50;;;;;;;5.15;3.88;;;17.60;97.60;;;;;;5060207;28;20329;-70
2022/11/02 12:01:25;;;;;;;5.78;2.75;;;17.60;98.00;;;;;;5042387;28;20301;-70
2022/11/02 12:08:07;;;;;;;6.00;4.32;;;17.60;98.00;;;;;;5060126;28;20032;-70
2022/11/02 12:11:11;;;;;;;5.10;3.95;;;17.50;98.00;;;;;;4979306;28;20034;-69
2022/11/02 12:17:38;;;;;;;3.60;3.28;;;17.10;98.00;;;;;;4979157;28;20041;-71
2022/11/02 12:20:36;;;;;;;7.10;3.53;;;17.10;98.00;;;;;;4979154;28;20428;-70
2022/11/02 12:27:06;;;;;;;6.57;4.90;;;17.20;98.00;;;;;;4992382;28;20044;-71
2022/11/02 12:30:13;;;;;;;5.80;4.18;;;17.40;98.00;;;;;;5059600;28;20071;-71
2022/11/02 12:36:11;;;;;;;4.00;3.38;;;17.60;98.00;;;;;;5059845;28;20055;-70
2022/11/02 12:39:30;;;;;;;5.10;4.13;;;17.70;98.00;;;;;;5059393;28;20020;-70
2022/11/02 12:42:30;;;;;;;7.78;4.05;;;17.80;98.00;;;;;;5059241;28;20029;-70
2022/11/02 12:45:38;;;;;;;5.85;3.10;;;17.80;98.00;;;;;;5059287;28;20029;-70
2022/11/02 12:48:56;;;;;;;4.07;3.70;;;17.70;97.30;;;;;;5059337;28;20020;-70
2022/11/02 12:51:45;;;;;;;2.60;2.15;;;17.70;97.50;;;;;;5059136;28;20017;-70
2022/11/02 12:57:42;;;;;;;8.30;4.43;;;18.00;98.00;;;;;;5059357;28;20032;-70
2022/11/02 13:01:07;;;;;;;5.38;3.53;;;18.00;97.80;;;;;;5059074;28;20036;-70
2022/11/02 13:07:13;;;;;;;6.95;4.53;;;17.80;98.00;;;;;;5058905;28;20051;-71
2022/11/02 13:10:13;;;;;;;12.52;3.47;;;17.80;98.00;;;;;;5058868;28;20036;-70
2022/11/02 13:16:12;;;;;;;7.50;3.55;;;18.00;98.00;;;;;;5058898;28;20036;-70
2022/11/02 13:18:52;;;;;;;4.28;3.28;;;18.00;97.60;;;;;;5058741;28;20121;-70
2022/11/02 13:21:44;;;;;;;4.47;3.50;;;18.00;98.00;;;;;;5058679;28;20021;-70
2022/11/02 13:27:52;;;;;;;4.30;3.83;;;17.80;96.90;;;;;;5058829;28;20040;-70
2022/11/02 13:30:28;;;;;;;3.63;3.33;;;17.60;97.60;;;;;;5058468;28;20028;-70
2022/11/02 13:33:19;;;;;;;4.57;3.42;;;17.50;98.00;;;;;;5058420;28;20044;-70
2022/11/02 13:35:46;;;;;;;4.07;3.28;;;17.30;98.00;;;;;;5058432;28;20052;-70
2022/11/02 13:38:55;;;;;;;3.67;3.10;;;17.30;98.00;;;;;;5058294;28;20024;-70
2022/11/02 13:42:00;;;;;;;4.95;2.85;;;17.30;98.00;;;;;;5058278;28;20059;-70
2022/11/02 13:44:32;;;;;;;6.35;3.97;;;17.20;98.00;;;;;;5040373;28;20095;-70
2022/11/02 13:47:38;;;;;;;6.00;3.65;;;17.20;98.00;;;;;;5058180;28;20021;-71
2022/11/02 13:50:18;;;;;;;7.32;4.30;;;17.10;98.00;;;;;;5058156;28;20021;-69
2022/11/02 13:56:20;;;;;;;5.40;3.65;;;16.90;98.00;;;;;;5058352;28;20024;-69
2022/11/02 13:59:17;;;;;;;4.63;3.38;;;16.90;98.00;;;;;;5057972;28;20305;-72
2022/11/02 14:01:54;;;;;;;5.63;3.95;;;16.80;98.00;;;;;;5053685;28;20308;-71
2022/11/02 14:05:15;;;;;;;3.85;3.15;;;16.70;98.00;;;;;;5057985;28;20021;-72
2022/11/02 14:07:50;;;;;;;5.00;4.50;;;16.60;98.00;;;;;;5057763;28;20032;-72
2022/11/02 14:10:26;;;;;;;3.85;3.05;;;16.50;98.00;;;;;;5057757;28;20040;-72
2022/11/02 14:17:13;;;;;;;5.63;4.78;;;16.40;98.00;;;;;;5057326;28;20090;-69
2022/11/02 14:20:39;;;;;;;6.38;4.93;;;16.40;98.00;;;;;;5057459;28;20020;-71
2022/11/02 14:23:34;;;;;;;6.32;5.03;;;16.30;98.00;;;;;;5057845;28;20055;-71
2022/11/02 14:27:05;;;;;;;7.88;4.97;;;16.30;98.00;;;;;;5057386;28;20041;-71
2022/11/02 14:29:45;;;;;;;3.80;3.35;;;16.20;98.00;;;;;;5005034;28;20032;-70
2022/11/02 14:35:43;;;;;;;3.30;2.65;;;16.00;98.00;;;;;;5016116;28;20169;-69
2022/11/02 14:39:23;;;;;;;4.60;4.20;;;16.00;98.00;;;;;;5015621;28;20064;-70
2022/11/02 14:41:58;;;;;;;6.78;3.78;;;15.90;98.00;;;;;;4945426;29;20408;-69
2022/11/02 14:44:26;;;;;;;;;;;15.80;98.00;;;;;;4957630;29;20019;-69
2022/11/02 14:47:09;;;;;;;6.10;4.20;;;15.80;98.00;;;;;;4957094;29;19913;-71
2022/11/02 14:50:02;;;;;;;5.57;4.30;;;15.70;98.00;;;;;;4957138;29;20031;-71
2022/11/02 14:56:01;;;;;;;4.05;3.65;;;15.70;98.00;;;;;;4986771;28;20121;-71
2022/11/02 14:59:02;;;;;;;6.57;4.45;;;15.60;98.00;;;;;;5015287;28;20026;-70
2022/11/02 15:02:07;;;;;;;4.78;3.65;;;15.60;98.00;;;;;;5015150;28;20033;-70
2022/11/02 15:04:34;;;;;;;3.08;2.78;;;15.60;98.00;;;;;;5038884;28;20035;-70
2022/11/02 15:07:19;;;;;;;4.80;2.58;;;15.60;98.00;;;;;;5056706;28;20021;-71
2022/11/02 15:10:39;;;;;;;4.97;3.95;;;15.60;98.00;;;;;;5056733;28;20355;-71
2022/11/02 15:16:40;;;;;;;6.85;4.70;;;15.60;98.00;;;;;;5056369;28;20321;-69
2022/11/02 15:19:50;;;;;;;5.88;4.05;;;15.60;98.00;;;;;;5056504;28;20024;-71
2022/11/02 15:25:47;;;;;;;6.10;3.85;;;15.60;98.00;;;;;;5055678;28;20108;-71
2022/11/02 15:28:39;;;;;;;4.25;2.55;;;15.60;98.00;;;;;;5056381;28;20028;-71
2022/11/02 15:31:19;;;;;;;6.18;4.68;;;15.50;98.00;;;;;;5038698;28;20053;-70
2022/11/02 15:37:21;;;;;;;5.50;4.05;;;15.50;98.00;;;;;;5056516;28;20070;-69
2022/11/02 15:40:02;;;;;;;5.55;4.25;;;15.40;98.00;;;;;;5056357;28;20029;-70
2022/11/02 15:46:01;;;;;;;5.78;4.18;;;15.40;98.00;;;;;;5056431;28;20067;-71
2022/11/02 15:49:03;;;;;;;5.38;4.28;;;15.40;98.00;;;;;;5056159;28;20025;-70
2022/11/02 15:52:24;;;;;;;8.10;5.53;;;15.30;98.00;;;;;;5056068;28;20032;-71
2022/11/02 15:55:28;;;;;;;4.30;3.92;;;15.30;98.00;;;;;;5056138;28;20422;-71
2022/11/02 15:58:34;;;;;;;4.88;3.88;;;15.30;98.00;;;;;;5055920;28;20013;-71
2022/11/02 16:01:19;;;;;;;5.03;4.50;;;15.20;98.00;;;;;;5056176;28;20429;-71
2022/11/02 16:04:05;;;;;;;3.22;2.97;;;15.20;98.00;;;;;;5056126;28;20022;-71
2022/11/02 16:06:43;;;;;;;;;;;15.20;98.00;;;;;;5056448;28;20356;-71
2022/11/02 16:09:38;;;;;;;5.57;4.28;;;15.10;98.00;;;;;;5038403;28;19983;-71
2022/11/02 16:15:26;;;;;;;6.22;3.75;;;15.10;98.00;;;;;;5056083;28;20040;-71
2022/11/02 16:18:39;;;;;;;9.02;5.07;;;15.10;98.00;;;;;;5055792;28;20052;-71
2022/11/02 16:21:16;;;;;;;7.63;4.25;;;15.00;98.00;;;;;;5014370;28;20025;-71
2022/11/02 16:27:13;;;;;;;5.70;5.13;;;15.10;98.00;;;;;;5014227;28;20100;-71
2022/11/02 16:29:49;;;;;;;5.35;3.75;;;15.20;98.00;;;;;;5014456;28;20121;-71
2022/11/02 16:35:37;;;;;;;6.22;3.83;;;15.10;98.00;;;;;;5014715;28;20087;-69
2022/11/02 16:38:12;;;;;;;6.22;4.72;;;15.10;98.00;;;;;;5017127;28;20042;-71
2022/11/02 16:40:47;;;;;;;4.32;3.42;;;15.10;98.00;;;;;;5017852;28;20307;-72
2022/11/02 16:46:57;;;;;;;11.32;6.00;;;15.00;98.00;;;;;;5017835;28;20169;-71
2022/11/02 16:50:03;;;;;;;4.22;3.55;;;14.90;98.00;;;;;;5017834;28;20026;-71
2022/11/02 16:52:41;;;;;;;7.63;4.53;;;14.90;98.00;;;;;;5051537;28;20428;-71
2022/11/02 16:55:44;;;;;;;5.60;4.32;;;15.00;98.00;;;;;;5059315;28;20032;-72
2022/11/02 16:58:26;;;;;;;8.02;5.28;;;15.00;98.00;;;;;;5058935;28;20421;-70
2022/11/02 17:01:11;;;;;;;6.47;4.43;;;15.00;98.00;;;;;;5058959;28;20328;-71
2022/11/02 17:07:47;;;;;;;4.78;3.90;;;15.10;98.00;;;;;;5059343;28;20439;-71
2022/11/02 17:17:21;;;;;;;4.78;3.72;;;15.10;98.00;;;;;;5016964;28;20148;-71
2022/11/02 17:20:14;;;;;;;5.72;3.65;;;14.90;98.00;;;;;;5017218;28;20200;-71
2022/11/02 17:23:34;;;;;;;6.60;5.10;;;14.80;98.00;;;;;;5016905;28;20433;-71
2022/11/02 17:26:42;;;;;;;14.00;4.40;;;14.70;98.00;;;;;;4958606;29;20047;-71
2022/11/02 17:29:38;;;;;;;5.53;4.50;;;14.70;98.00;;;;;;4936832;29;20412;-71
2022/11/02 17:32:15;;;;;;;6.22;5.63;;;14.60;98.00;;;;;;4958470;29;20094;-71
2022/11/02 17:34:51;;;;;;;7.05;4.70;;;14.50;98.00;;;;;;4958526;29;20086;-71
2022/11/02 17:37:30;;;;;;;4.45;3.90;;;14.40;98.00;;;;;;4958267;29;20098;-71
2022/11/02 17:40:08;;;;;;;5.35;4.68;;;14.40;98.00;;;;;;5016043;28;20038;-70
2022/11/02 17:45:33;;;;;;;9.38;5.03;;;14.30;98.00;;;;;;5057964;28;20028;-71
2022/11/02 17:48:09;;;;;;;6.90;5.00;;;14.30;98.00;;;;;;5057545;28;20097;-71